createdAt,value
2019-01-09T00:00:50.505Z,3.30
2019-01-09T00:03:19.075Z,3.30
2019-01-09T00:05:47.776Z,3.30
2019-01-09T00:08:17.301Z,3.40
2019-01-09T00:10:46.637Z,3.40
2019-01-09T00:13:15.232Z,3.40
2019-01-09T00:15:43.802Z,3.40
2019-01-09T00:18:12.421Z,3.50
2019-01-09T00:20:40.973Z,3.50
2019-01-09T00:23:09.746Z,3.50
2019-01-09T00:25:38.301Z,3.50
2019-01-09T00:28:06.836Z,3.50
2019-01-09T00:30:36.456Z,3.50
2019-01-09T00:33:05.070Z,3.50
2019-01-09T00:35:37.481Z,3.50
2019-01-09T00:38:03.808Z,3.50
2019-01-09T00:40:32.522Z,3.50
2019-01-09T00:43:01.052Z,3.60
2019-01-09T00:45:29.621Z,3.60
2019-01-09T00:47:58.301Z,3.60
2019-01-09T00:50:26.874Z,3.70
2019-01-09T00:52:56.248Z,3.70
2019-01-09T00:55:24.869Z,3.60
2019-01-09T00:57:53.559Z,3.70
2019-01-09T01:00:22.356Z,3.60
2019-01-09T01:03:25.490Z,3.50
2019-01-09T01:06:09.244Z,3.50
2019-01-09T01:08:58.561Z,3.30
2019-01-09T01:11:32.828Z,3.30
2019-01-09T01:14:15.870Z,3.20
2019-01-09T01:17:06.607Z,3.20
2019-01-09T01:19:46.900Z,3.20
2019-01-09T01:22:34.873Z,3.30
2019-01-09T01:25:30.203Z,3.30
2019-01-09T01:28:07.571Z,3.30
2019-01-09T01:30:50.345Z,3.30
2019-01-09T01:33:27.652Z,3.40
2019-01-09T01:36:05.162Z,3.40
2019-01-09T01:38:42.574Z,3.50
2019-01-09T01:41:17.131Z,3.50
2019-01-09T01:43:48.933Z,3.30
2019-01-09T01:46:41.450Z,3.20
2019-01-09T01:49:24.938Z,3.10
2019-01-09T01:52:08.397Z,3.00
2019-01-09T01:54:42.849Z,3.00
2019-01-09T01:57:29.113Z,3.00
2019-01-09T02:00:00.768Z,2.90
2019-01-09T02:02:53.608Z,2.80
2019-01-09T02:05:27.703Z,2.70
2019-01-09T02:08:07.994Z,2.60
2019-01-09T02:10:57.565Z,2.60
2019-01-09T02:13:50.125Z,2.60
2019-01-09T02:16:36.289Z,2.70
2019-01-09T02:19:29.009Z,2.60
2019-01-09T02:22:27.469Z,2.70
2019-01-09T02:25:04.499Z,2.60
2019-01-09T02:27:41.935Z,2.60
2019-01-09T02:30:13.544Z,2.70
2019-01-09T02:32:42.105Z,2.70
2019-01-09T02:35:10.654Z,2.70
2019-01-09T02:37:39.226Z,2.70
2019-01-09T02:40:07.701Z,2.70
2019-01-09T02:42:36.266Z,2.70
2019-01-09T02:45:05.239Z,2.70
2019-01-09T02:47:33.779Z,2.60
2019-01-09T02:50:02.342Z,2.70
2019-01-09T02:52:30.837Z,2.70
2019-01-09T02:54:59.369Z,2.70
2019-01-09T02:57:27.913Z,2.80
2019-01-09T02:59:56.726Z,2.80
2019-01-09T03:02:25.261Z,2.80
2019-01-09T03:04:54.105Z,2.60
2019-01-09T03:07:22.644Z,2.70
2019-01-09T03:09:51.133Z,2.70
2019-01-09T03:12:19.600Z,2.70
2019-01-09T03:14:48.093Z,2.60
2019-01-09T03:17:16.705Z,2.60
2019-01-09T03:19:45.618Z,2.60
2019-01-09T03:22:14.082Z,2.60
2019-01-09T03:24:42.637Z,2.60
2019-01-09T03:27:12.093Z,2.60
2019-01-09T03:29:40.679Z,2.60
2019-01-09T03:32:09.279Z,2.70
2019-01-09T03:34:37.835Z,2.60
2019-01-09T03:37:06.368Z,2.60
2019-01-09T03:39:34.957Z,2.50
2019-01-09T03:42:03.578Z,2.50
2019-01-09T03:44:32.067Z,2.40
2019-01-09T03:47:00.607Z,2.40
2019-01-09T03:49:29.185Z,2.30
2019-01-09T03:51:57.657Z,2.30
2019-01-09T03:54:26.149Z,2.20
2019-01-09T03:56:54.681Z,2.10
2019-01-09T03:59:23.243Z,2.00
2019-01-09T04:01:51.881Z,2.00
2019-01-09T04:04:20.386Z,2.10
2019-01-09T04:06:49.305Z,2.10
2019-01-09T04:09:17.884Z,2.10
2019-01-09T04:11:46.428Z,2.10
2019-01-09T04:14:15.062Z,2.10
2019-01-09T04:16:43.599Z,2.00
2019-01-09T04:19:12.155Z,2.10
2019-01-09T04:21:40.949Z,2.20
2019-01-09T04:24:09.446Z,2.20
2019-01-09T04:26:38.233Z,2.20
2019-01-09T04:29:07.021Z,2.10
2019-01-09T04:31:35.566Z,2.10
2019-01-09T04:34:04.183Z,2.10
2019-01-09T04:36:32.736Z,2.20
2019-01-09T04:39:01.207Z,2.20
2019-01-09T04:41:29.779Z,2.10
2019-01-09T04:43:58.331Z,2.10
2019-01-09T04:46:26.893Z,2.10
2019-01-09T04:48:55.363Z,2.10
2019-01-09T04:51:23.925Z,2.20
2019-01-09T04:53:52.452Z,2.20
2019-01-09T04:56:21.318Z,2.20
2019-01-09T04:58:49.864Z,2.30
2019-01-09T05:01:18.677Z,2.20
2019-01-09T05:03:47.293Z,2.20
2019-01-09T05:06:15.866Z,2.10
2019-01-09T05:08:45.026Z,2.20
2019-01-09T05:11:13.586Z,2.20
2019-01-09T05:13:42.129Z,2.20
2019-01-09T05:16:10.704Z,2.20
2019-01-09T05:18:39.265Z,2.20
2019-01-09T05:21:07.839Z,2.20
2019-01-09T05:23:36.372Z,2.10
2019-01-09T05:26:04.943Z,2.20
2019-01-09T05:28:33.483Z,2.20
2019-01-09T05:31:07.447Z,2.20
2019-01-09T05:33:32.409Z,2.20
2019-01-09T05:36:00.965Z,2.20
2019-01-09T05:38:29.428Z,2.10
2019-01-09T05:40:57.923Z,2.10
2019-01-09T05:43:26.452Z,2.10
2019-01-09T05:45:54.942Z,2.10
2019-01-09T05:48:23.485Z,2.10
2019-01-09T05:50:52.053Z,2.20
2019-01-09T05:53:20.878Z,2.20
2019-01-09T05:55:49.447Z,2.10
2019-01-09T05:58:17.983Z,2.10
2019-01-09T06:00:46.525Z,2.00
2019-01-09T06:03:15.009Z,2.10
2019-01-09T06:05:43.469Z,2.10
2019-01-09T06:08:11.967Z,2.10
2019-01-09T06:10:41.195Z,2.10
2019-01-09T06:13:09.761Z,2.10
2019-01-09T06:15:38.239Z,2.10
2019-01-09T06:18:06.788Z,2.10
2019-01-09T06:20:35.262Z,1.90
2019-01-09T06:23:03.884Z,1.70
2019-01-09T06:25:32.427Z,1.70
2019-01-09T06:28:00.989Z,1.80
2019-01-09T06:30:29.542Z,1.90
2019-01-09T06:32:58.271Z,1.90
2019-01-09T06:35:26.810Z,1.80
2019-01-09T06:37:55.382Z,1.90
2019-01-09T06:40:24.234Z,1.90
2019-01-09T06:42:52.886Z,2.00
2019-01-09T06:45:21.426Z,2.00
2019-01-09T06:47:50.005Z,2.10
2019-01-09T06:50:18.892Z,2.20
2019-01-09T06:52:47.387Z,2.10
2019-01-09T06:55:15.938Z,2.00
2019-01-09T06:57:44.511Z,2.00
2019-01-09T07:00:13.057Z,1.90
2019-01-09T07:02:41.540Z,1.70
2019-01-09T07:05:10.080Z,1.50
2019-01-09T07:07:38.644Z,1.20
2019-01-09T07:10:08.248Z,1.20
2019-01-09T07:12:36.819Z,1.30
2019-01-09T07:15:11.327Z,1.40
2019-01-09T07:17:37.133Z,1.50
2019-01-09T07:20:06.114Z,1.50
2019-01-09T07:22:34.794Z,1.50
2019-01-09T07:25:03.344Z,1.60
2019-01-09T07:27:31.902Z,1.60
2019-01-09T07:30:00.452Z,1.70
2019-01-09T07:32:29.022Z,1.60
2019-01-09T07:34:57.568Z,1.50
2019-01-09T07:37:26.132Z,1.50
2019-01-09T07:39:54.610Z,1.60
2019-01-09T07:42:23.147Z,1.60
2019-01-09T07:44:51.715Z,1.60
2019-01-09T07:47:20.573Z,1.70
2019-01-09T07:49:49.428Z,1.70
2019-01-09T07:52:17.962Z,1.70
2019-01-09T07:54:46.441Z,1.70
2019-01-09T07:57:14.978Z,1.70
2019-01-09T07:59:43.547Z,1.70
2019-01-09T08:02:12.089Z,1.60
2019-01-09T08:04:40.654Z,1.70
2019-01-09T08:07:09.193Z,1.80
2019-01-09T08:09:37.741Z,1.90
2019-01-09T08:12:06.514Z,2.00
2019-01-09T08:14:35.090Z,1.90
2019-01-09T08:17:03.629Z,1.90
2019-01-09T08:19:32.301Z,2.00
2019-01-09T08:22:00.766Z,2.10
2019-01-09T08:24:29.330Z,2.00
2019-01-09T08:26:57.793Z,2.00
2019-01-09T08:29:26.289Z,2.00
2019-01-09T08:31:54.829Z,1.90
2019-01-09T08:34:23.397Z,1.80
2019-01-09T08:36:51.944Z,1.80
2019-01-09T08:39:20.493Z,1.80
2019-01-09T08:41:49.233Z,1.70
2019-01-09T08:44:17.787Z,1.60
2019-01-09T08:46:46.401Z,1.60
2019-01-09T08:49:14.975Z,1.40
2019-01-09T08:51:43.517Z,1.20
2019-01-09T08:54:12.105Z,1.20
2019-01-09T08:56:40.674Z,1.20
2019-01-09T08:59:09.229Z,1.20
2019-01-09T09:01:37.789Z,1.30
2019-01-09T09:04:06.440Z,1.40
2019-01-09T09:06:34.977Z,1.40
2019-01-09T09:09:04.478Z,1.50
2019-01-09T09:11:33.294Z,1.50
2019-01-09T09:14:01.852Z,1.50
2019-01-09T09:16:36.504Z,1.50
2019-01-09T09:19:00.541Z,1.50
2019-01-09T09:21:29.023Z,1.50
2019-01-09T09:23:57.518Z,1.50
2019-01-09T09:26:26.067Z,1.60
2019-01-09T09:28:54.625Z,1.60
2019-01-09T09:31:23.167Z,1.60
2019-01-09T09:33:51.743Z,1.60
2019-01-09T09:36:20.286Z,1.70
2019-01-09T09:38:48.864Z,1.80
2019-01-09T09:41:17.616Z,1.90
2019-01-09T09:43:46.103Z,2.00
2019-01-09T09:46:14.677Z,1.90
2019-01-09T09:48:43.234Z,2.00
2019-01-09T09:51:11.850Z,1.90
2019-01-09T09:53:40.389Z,1.90
2019-01-09T09:56:08.872Z,1.80
2019-01-09T09:58:37.413Z,2.00
2019-01-09T10:01:06.817Z,2.00
2019-01-09T10:03:35.280Z,2.00
2019-01-09T10:06:04.706Z,2.00
2019-01-09T10:08:33.251Z,2.10
2019-01-09T10:11:01.815Z,2.10
2019-01-09T10:13:30.281Z,2.20
2019-01-09T10:15:58.849Z,2.30
2019-01-09T10:18:27.386Z,2.50
2019-01-09T10:20:56.431Z,2.50
2019-01-09T10:23:24.963Z,2.60
2019-01-09T10:25:53.513Z,2.60
2019-01-09T10:28:22.065Z,2.60
2019-01-09T10:30:50.630Z,2.60
2019-01-09T10:33:19.179Z,2.50
2019-01-09T10:35:47.737Z,2.60
2019-01-09T10:38:16.273Z,2.40
2019-01-09T10:40:44.836Z,2.40
2019-01-09T10:43:13.313Z,2.30
2019-01-09T10:45:42.587Z,2.10
2019-01-09T10:48:11.382Z,2.20
2019-01-09T10:50:39.945Z,2.10
2019-01-09T10:53:08.576Z,2.20
2019-01-09T10:55:37.129Z,2.30
2019-01-09T10:58:05.677Z,2.30
2019-01-09T11:00:34.314Z,2.30
2019-01-09T11:03:02.997Z,2.40
2019-01-09T11:05:31.567Z,2.50
2019-01-09T11:08:00.380Z,2.50
2019-01-09T11:10:28.937Z,2.60
2019-01-09T11:12:57.471Z,2.50
2019-01-09T11:15:26.175Z,2.60
2019-01-09T11:17:54.709Z,2.60
2019-01-09T11:20:23.293Z,2.70
2019-01-09T11:22:51.840Z,2.90
2019-01-09T11:25:22.838Z,3.00
2019-01-09T11:27:51.305Z,3.10
2019-01-09T11:30:20.084Z,3.20
2019-01-09T11:32:48.780Z,3.10
2019-01-09T11:35:19.581Z,3.00
2019-01-09T11:37:48.218Z,2.70
2019-01-09T11:40:18.922Z,2.30
2019-01-09T11:42:47.451Z,2.00
2019-01-09T11:45:20.181Z,1.90
2019-01-09T11:47:49.153Z,2.00
2019-01-09T11:50:18.175Z,2.10
2019-01-09T11:52:46.763Z,2.20
2019-01-09T11:55:15.972Z,2.20
2019-01-09T11:57:44.509Z,2.40
2019-01-09T12:00:16.457Z,2.30
2019-01-09T12:02:45.381Z,2.30
2019-01-09T12:05:14.102Z,2.20
2019-01-09T12:07:42.818Z,2.10
2019-01-09T12:10:14.430Z,2.30
2019-01-09T12:12:43.211Z,2.50
2019-01-09T12:15:13.482Z,2.50
2019-01-09T12:17:42.113Z,2.50
2019-01-09T12:20:13.438Z,2.50
2019-01-09T12:22:42.160Z,2.80
2019-01-09T12:25:11.544Z,3.20
2019-01-09T12:27:40.181Z,3.70
2019-01-09T12:30:18.029Z,4.00
2019-01-09T12:32:46.599Z,4.20
2019-01-09T12:35:15.201Z,3.90
2019-01-09T12:37:43.694Z,3.60
2019-01-09T12:40:12.411Z,3.60
2019-01-09T12:42:40.969Z,3.70
2019-01-09T12:45:12.437Z,3.90
2019-01-09T12:47:41.086Z,4.00
2019-01-09T12:50:14.188Z,4.20
2019-01-09T12:52:42.789Z,4.70
2019-01-09T12:55:11.417Z,4.70
2019-01-09T12:57:39.972Z,4.10
2019-01-09T13:00:14.500Z,3.60
2019-01-09T13:02:43.069Z,3.10
2019-01-09T13:05:11.964Z,2.70
2019-01-09T13:07:40.633Z,2.60
2019-01-09T13:10:10.678Z,2.50
2019-01-09T13:12:39.322Z,2.50
2019-01-09T13:15:09.734Z,2.50
2019-01-09T13:17:38.238Z,2.50
2019-01-09T13:20:12.121Z,2.50
2019-01-09T13:22:40.613Z,2.50
2019-01-09T13:25:10.400Z,2.50
2019-01-09T13:27:38.957Z,2.50
2019-01-09T13:30:10.609Z,2.50
2019-01-09T13:32:39.117Z,2.70
2019-01-09T13:35:08.832Z,2.70
2019-01-09T13:37:37.394Z,2.60
2019-01-09T13:40:11.936Z,2.60
2019-01-09T13:42:40.494Z,2.70
2019-01-09T13:45:11.717Z,2.90
2019-01-09T13:47:40.388Z,3.00
2019-01-09T13:50:11.770Z,2.90
2019-01-09T13:52:40.346Z,2.50
2019-01-09T13:55:11.641Z,2.40
2019-01-09T13:57:40.191Z,2.10
2019-01-09T14:00:16.980Z,1.60
2019-01-09T14:02:45.677Z,1.20
2019-01-09T14:05:14.887Z,1.10
2019-01-09T14:07:43.738Z,1.20
2019-01-09T14:10:18.090Z,1.30
2019-01-09T14:12:46.761Z,1.30
2019-01-09T14:15:18.048Z,1.40
2019-01-09T14:17:46.677Z,1.50
2019-01-09T14:20:15.507Z,1.50
2019-01-09T14:22:44.259Z,1.40
2019-01-09T14:25:14.836Z,1.40
2019-01-09T14:27:43.576Z,1.50
2019-01-09T14:30:15.194Z,1.60
2019-01-09T14:32:43.752Z,1.60
2019-01-09T14:35:12.642Z,1.60
2019-01-09T14:37:41.199Z,1.70
2019-01-09T14:40:12.988Z,1.90
2019-01-09T14:42:41.552Z,2.00
2019-01-09T14:45:12.465Z,2.10
2019-01-09T14:47:41.017Z,2.30
2019-01-09T14:50:13.803Z,2.30
2019-01-09T14:52:42.363Z,2.10
2019-01-09T14:55:11.243Z,2.00
2019-01-09T14:57:40.200Z,2.10
2019-01-09T15:00:12.114Z,2.10
2019-01-09T15:02:40.653Z,2.10
2019-01-09T15:05:09.440Z,2.00
2019-01-09T15:07:37.998Z,2.00
2019-01-09T15:10:09.617Z,2.00
2019-01-09T15:12:38.416Z,1.80
2019-01-09T15:15:10.428Z,1.70
2019-01-09T15:17:38.974Z,1.80
2019-01-09T15:20:10.573Z,1.80
2019-01-09T15:22:40.033Z,1.80
2019-01-09T15:25:10.761Z,1.70
2019-01-09T15:27:40.032Z,1.70
2019-01-09T15:30:12.013Z,1.60
2019-01-09T15:32:40.692Z,1.70
2019-01-09T15:35:11.321Z,1.60
2019-01-09T15:37:39.940Z,1.50
2019-01-09T15:40:14.580Z,1.20
2019-01-09T15:42:43.044Z,1.00
2019-01-09T15:45:13.381Z,0.90
2019-01-09T15:47:42.134Z,0.80
2019-01-09T15:50:13.860Z,0.80
2019-01-09T15:52:42.640Z,0.90
2019-01-09T15:55:13.638Z,0.90
2019-01-09T15:57:42.961Z,0.80
2019-01-09T16:00:15.257Z,0.90
2019-01-09T16:02:43.869Z,0.90
2019-01-09T16:05:12.703Z,1.00
2019-01-09T16:07:41.593Z,1.10
2019-01-09T16:10:15.930Z,1.10
2019-01-09T16:12:44.391Z,1.10
2019-01-09T16:15:15.402Z,1.10
2019-01-09T16:17:44.309Z,1.10
2019-01-09T16:20:17.020Z,1.20
2019-01-09T16:22:45.985Z,1.20
2019-01-09T16:25:15.480Z,1.20
2019-01-09T16:27:44.093Z,1.30
2019-01-09T16:30:18.412Z,1.30
2019-01-09T16:32:47.017Z,1.30
2019-01-09T16:35:15.655Z,1.20
2019-01-09T16:37:44.461Z,1.10
2019-01-09T16:40:23.030Z,1.10
2019-01-09T16:42:45.992Z,1.10
2019-01-09T16:45:15.396Z,1.20
2019-01-09T16:47:44.001Z,1.20
2019-01-09T16:50:18.577Z,1.20
2019-01-09T16:52:47.040Z,1.30
2019-01-09T16:55:15.675Z,1.30
2019-01-09T16:57:44.589Z,1.30
2019-01-09T17:00:16.320Z,1.20
2019-01-09T17:02:44.860Z,1.20
2019-01-09T17:05:13.729Z,1.20
2019-01-09T17:07:42.348Z,1.20
2019-01-09T17:10:13.957Z,1.20
2019-01-09T17:12:42.584Z,1.20
2019-01-09T17:15:14.995Z,1.30
2019-01-09T17:17:43.605Z,1.20
2019-01-09T17:20:23.869Z,1.20
2019-01-09T17:22:52.398Z,1.10
2019-01-09T17:25:21.436Z,1.10
2019-01-09T17:27:50.046Z,1.00
2019-01-09T17:30:24.298Z,1.00
2019-01-09T17:32:52.925Z,1.00
2019-01-09T17:35:21.638Z,1.10
2019-01-09T17:37:50.362Z,1.10
2019-01-09T17:40:20.840Z,1.10
2019-01-09T17:42:49.940Z,1.10
2019-01-09T17:45:18.501Z,1.00
2019-01-09T17:47:47.381Z,1.00
2019-01-09T17:50:33.639Z,1.00
2019-01-09T17:53:02.221Z,1.00
2019-01-09T17:55:30.778Z,1.00
2019-01-09T17:57:59.353Z,0.90
2019-01-09T18:00:36.721Z,0.90
2019-01-09T18:03:05.378Z,0.90
2019-01-09T18:05:33.913Z,0.90
2019-01-09T18:08:10.110Z,1.00
2019-01-09T18:10:32.678Z,1.00
2019-01-09T18:13:01.641Z,1.10
2019-01-09T18:15:30.249Z,1.10
2019-01-09T18:17:58.814Z,1.00
2019-01-09T18:20:27.350Z,1.00
2019-01-09T18:22:56.093Z,1.00
2019-01-09T18:25:27.084Z,1.00
2019-01-09T18:27:55.820Z,1.00
2019-01-09T18:30:30.171Z,0.90
2019-01-09T18:33:07.961Z,1.00
2019-01-09T18:35:51.954Z,1.10
2019-01-09T18:38:28.924Z,1.20
2019-01-09T18:41:24.440Z,1.10
2019-01-09T18:43:58.846Z,1.00
2019-01-09T18:46:33.163Z,1.00
2019-01-09T18:49:21.615Z,1.10
2019-01-09T18:51:55.915Z,1.20
2019-01-09T18:54:24.445Z,1.20
2019-01-09T18:56:53.463Z,1.30
2019-01-09T18:59:21.992Z,1.30
2019-01-09T19:01:50.627Z,1.40
2019-01-09T19:04:19.172Z,1.40
2019-01-09T19:06:47.807Z,1.40
2019-01-09T19:09:16.361Z,1.30
2019-01-09T19:11:50.536Z,1.30
2019-01-09T19:14:15.516Z,1.20
2019-01-09T19:16:44.148Z,1.00
2019-01-09T19:19:12.684Z,1.00
2019-01-09T19:21:41.618Z,1.10
2019-01-09T19:24:10.177Z,1.10
2019-01-09T19:26:38.768Z,1.00
2019-01-09T19:29:07.452Z,1.00
2019-01-09T19:31:36.059Z,1.00
2019-01-09T19:34:05.094Z,1.00
2019-01-09T19:36:33.638Z,1.00
2019-01-09T19:39:02.278Z,1.00
2019-01-09T19:41:30.775Z,1.10
2019-01-09T19:43:59.317Z,1.00
2019-01-09T19:46:27.922Z,0.90
2019-01-09T19:48:56.546Z,0.80
2019-01-09T19:51:25.013Z,0.80
2019-01-09T19:53:53.499Z,0.90
2019-01-09T19:56:22.033Z,0.90
2019-01-09T19:58:50.661Z,0.70
2019-01-09T20:01:20.125Z,0.70
2019-01-09T20:03:49.249Z,0.70
2019-01-09T20:06:18.151Z,0.70
2019-01-09T20:08:46.814Z,0.70
2019-01-09T20:11:15.424Z,0.70
2019-01-09T20:13:44.124Z,0.70
2019-01-09T20:16:12.671Z,0.60
2019-01-09T20:18:41.241Z,0.60
2019-01-09T20:21:10.011Z,0.60
2019-01-09T20:23:38.507Z,0.60
2019-01-09T20:26:07.193Z,0.70
2019-01-09T20:28:35.752Z,0.70
2019-01-09T20:31:04.479Z,0.80
2019-01-09T20:33:33.070Z,0.70
2019-01-09T20:36:01.597Z,0.60
2019-01-09T20:38:30.189Z,0.70
2019-01-09T20:40:58.769Z,0.70
2019-01-09T20:43:29.265Z,0.70
2019-01-09T20:45:57.526Z,0.70
2019-01-09T20:48:26.182Z,0.60
2019-01-09T20:50:54.794Z,0.70
2019-01-09T20:53:23.365Z,0.80
2019-01-09T20:55:51.994Z,0.80
2019-01-09T20:58:20.609Z,0.90
2019-01-09T21:00:49.236Z,0.90
2019-01-09T21:03:17.709Z,0.90
2019-01-09T21:05:46.606Z,0.80
2019-01-09T21:08:15.295Z,0.80
2019-01-09T21:10:43.992Z,0.80
2019-01-09T21:13:12.552Z,0.80
2019-01-09T21:15:41.198Z,0.80
2019-01-09T21:18:10.069Z,0.80
2019-01-09T21:20:38.689Z,0.80
2019-01-09T21:23:07.357Z,0.80
2019-01-09T21:25:36.000Z,0.80
2019-01-09T21:28:05.567Z,0.80
2019-01-09T21:30:34.206Z,0.90
2019-01-09T21:33:02.812Z,1.00
2019-01-09T21:35:31.376Z,1.00
2019-01-09T21:37:59.916Z,1.00
2019-01-09T21:40:29.554Z,1.00
2019-01-09T21:42:58.157Z,0.90
2019-01-09T21:45:26.797Z,1.00
2019-01-09T21:47:55.399Z,0.90
2019-01-09T21:50:26.704Z,0.90
2019-01-09T21:52:55.378Z,1.00
2019-01-09T21:55:24.017Z,1.10
2019-01-09T21:57:52.564Z,1.10
2019-01-09T22:00:26.231Z,1.10
2019-01-09T22:02:54.770Z,1.10
2019-01-09T22:05:23.979Z,1.10
2019-01-09T22:07:52.661Z,1.10
2019-01-09T22:10:26.711Z,1.10
2019-01-09T22:12:55.409Z,1.30
2019-01-09T22:15:24.418Z,1.20
2019-01-09T22:17:53.089Z,1.10
2019-01-09T22:20:21.761Z,1.00
2019-01-09T22:22:50.390Z,1.00
2019-01-09T22:25:19.064Z,1.00
2019-01-09T22:27:47.784Z,1.00
2019-01-09T22:30:21.823Z,0.90
2019-01-09T22:32:50.453Z,0.90
2019-01-09T22:35:19.129Z,0.80
2019-01-09T22:37:47.691Z,0.80
2019-01-09T22:40:20.791Z,0.90
2019-01-09T22:42:49.038Z,0.80
2019-01-09T22:45:18.181Z,0.80
2019-01-09T22:47:46.741Z,0.80
2019-01-09T22:50:17.823Z,0.80
2019-01-09T22:52:46.484Z,0.80
2019-01-09T22:55:15.198Z,0.80
2019-01-09T22:57:44.096Z,0.70
2019-01-09T23:00:15.758Z,0.80
2019-01-09T23:02:44.379Z,0.80
2019-01-09T23:05:12.856Z,0.70
2019-01-09T23:07:41.418Z,0.50
2019-01-09T23:10:11.706Z,0.50
2019-01-09T23:12:40.184Z,0.50
2019-01-09T23:15:08.809Z,0.40
2019-01-09T23:17:37.429Z,0.50
2019-01-09T23:20:14.353Z,0.50
2019-01-09T23:22:42.989Z,0.70
2019-01-09T23:25:11.597Z,0.60
2019-01-09T23:27:40.140Z,0.50
2019-01-09T23:30:11.155Z,0.40
2019-01-09T23:32:39.790Z,0.50
2019-01-09T23:35:10.566Z,0.40
2019-01-09T23:37:39.274Z,0.40
2019-01-09T23:40:13.372Z,0.40
2019-01-09T23:42:42.066Z,0.50
2019-01-09T23:45:11.871Z,0.50
2019-01-09T23:47:40.425Z,0.40
2019-01-09T23:50:10.425Z,0.40
2019-01-09T23:52:38.960Z,0.40
2019-01-09T23:55:09.486Z,0.30
2019-01-09T23:57:37.958Z,0.20
